North Walpole, New Hampshire
Current Conditions -  °F | °C
As of 1:54 PM on Monday 20 Oct 2014 (Local Time) from KVSF Reporting Station
Few Clouds Few Clouds  
Wind Chill: 53°   Ceiling: Unl
Heat Index: 53°   Visibility: 10mi
Dew Point: 32°   Wind: 10mph
Humidity: 45%   Direction: 210°SSW
Pressure: 29.95"   Gusts: 16mph
Location:  43.14°N, 72.45°W
Report Text: KVSF 201754Z AUTO 21009G14KT 180V240 10SM FEW110 12/00 A2995 RMK AO2 SLP146 T01170000 10117 21022 56027
Loading
Personal Weather Stations






























Interactive Weather Map
Tropical Storm Tracking
New forecast layout! Learn more

10-Day Weather Forecast

Advertisements
Track Severe Weather on mobile